Time;durP1;ratioP1;P1;durP2;ratioP2;P2;SDS_P1;SDS_P2;PMS_P1;PMS_P2;Temp;Humidity;BMP_temperature;BMP_pressure;BME280_temperature;BME280_humidity;BME280_pressure;Samples;Min_cycle;Max_cycle;Signal;HPM_P1;HPM_P2
2022/09/27 00:02:15;;;;;;;3.20;1.60;;;10.80;99.30;;;;;;5099949;28;20180;-73
2022/09/27 00:04:40;;;;;;;2.37;1.77;;;10.80;97.20;;;;;;5087235;28;20194;-74
2022/09/27 00:07:06;;;;;;;2.70;1.97;;;10.80;95.20;;;;;;5103910;28;20181;-73
2022/09/27 00:09:32;;;;;;;2.60;1.90;;;10.80;99.30;;;;;;5100081;28;20203;-73
2022/09/27 00:11:57;;;;;;;3.07;1.70;;;10.90;99.10;;;;;;5095036;28;20175;-73
2022/09/27 00:14:23;;;;;;;2.37;1.70;;;10.90;99.40;;;;;;5103873;28;20306;-74
2022/09/27 00:16:48;;;;;;;9.00;1.60;;;10.90;96.50;;;;;;5103842;28;20320;-73
2022/09/27 00:19:17;;;;;;;2.03;1.83;;;10.90;98.90;;;;;;5111538;28;20190;-71
2022/09/27 00:21:43;;;;;;;1.80;1.70;;;10.90;99.40;;;;;;5112020;28;20453;-72
2022/09/27 00:24:13;;;;;;;2.27;1.90;;;10.90;99.40;;;;;;5112790;28;20423;-72
2022/09/27 00:26:39;;;;;;;6.23;2.00;;;10.90;99.30;;;;;;5112152;28;20393;-73
2022/09/27 00:29:04;;;;;;;2.30;1.80;;;10.90;99.40;;;;;;5112707;28;20551;-73
2022/09/27 00:31:30;;;;;;;2.27;1.90;;;11.00;99.90;;;;;;5109994;28;20175;-75
2022/09/27 00:34:00;;;;;;;2.30;1.80;;;11.00;99.40;;;;;;5112545;28;20202;-73
2022/09/27 00:36:27;;;;;;;2.00;1.70;;;11.00;99.50;;;;;;5111618;28;20166;-72
2022/09/27 00:38:53;;;;;;;2.50;1.70;;;11.00;99.40;;;;;;5111157;28;20515;-73
2022/09/27 00:41:25;;;;;;;4.60;1.60;;;11.00;99.40;;;;;;5110990;27;20416;-73
2022/09/27 00:43:52;;;;;;;1.73;1.60;;;11.00;99.40;;;;;;5107171;28;20474;-72
2022/09/27 00:46:26;;;;;;;4.33;1.80;;;11.00;99.30;;;;;;5102525;28;20507;-73
2022/09/27 00:49:02;;;;;;;1.70;1.60;;;11.00;99.50;;;;;;5093164;28;20450;-73
2022/09/27 00:51:29;;;;;;;3.30;1.70;;;11.00;98.90;;;;;;5090528;28;20500;-73
2022/09/27 00:53:56;;;;;;;2.13;1.80;;;11.10;99.50;;;;;;5090817;28;20917;-73
2022/09/27 00:56:27;;;;;;;3.80;2.10;;;11.00;99.40;;;;;;5089380;28;20445;-73
2022/09/27 00:59:02;;;;;;;3.50;1.70;;;10.50;98.50;;;;;;5091468;28;20521;-73
2022/09/27 01:01:29;;;;;;;2.40;2.20;;;11.00;99.50;;;;;;5090532;28;20463;-73
2022/09/27 01:03:58;;;;;;;4.13;1.73;;;11.00;99.90;;;;;;5091634;28;20402;-73
2022/09/27 01:06:23;;;;;;;2.63;1.90;;;11.00;99.90;;;;;;5090747;28;20900;-73
2022/09/27 01:08:49;;;;;;;6.33;1.87;;;11.00;99.40;;;;;;5091419;28;20428;-73
2022/09/27 01:11:56;;;;;;;4.10;1.90;;;10.90;99.40;;;;;;5089993;28;20180;-73
2022/09/27 01:14:54;;;;;;;4.33;2.40;;;11.00;99.90;;;;;;5096322;28;20561;-72
2022/09/27 01:17:36;;;;;;;3.90;1.97;;;12.00;99.90;;;;;;5100292;28;20952;-75
2022/09/27 01:20:49;;;;;;;4.37;1.90;;;11.10;99.90;;;;;;5111516;28;20887;-73
2022/09/27 01:23:26;;;;;;;2.80;1.80;;;11.10;99.90;;;;;;5111335;28;20561;-73
2022/09/27 01:26:00;;;;;;;1.93;1.83;;;11.10;99.90;;;;;;5100424;28;20828;-74
2022/09/27 01:28:46;;;;;;;4.30;2.30;;;11.00;99.90;;;;;;5090813;28;20544;-73
2022/09/27 01:31:18;;;;;;;2.00;1.60;;;11.00;99.90;;;;;;5088778;28;20406;-73
2022/09/27 01:34:08;;;;;;;3.10;1.60;;;11.00;99.90;;;;;;5090987;28;20449;-74
2022/09/27 01:36:45;;;;;;;2.60;1.93;;;11.00;99.90;;;;;;5090250;28;20406;-73
2022/09/27 01:39:26;;;;;;;2.93;1.70;;;11.10;99.90;;;;;;5090941;28;20479;-73
2022/09/27 01:42:01;;;;;;;2.77;1.80;;;11.10;99.90;;;;;;5090169;28;20749;-73
2022/09/27 01:44:34;;;;;;;4.27;1.60;;;11.00;99.90;;;;;;5089629;28;20827;-73
2022/09/27 01:47:04;;;;;;;3.90;1.83;;;11.00;99.90;;;;;;5102425;28;20409;-74
2022/09/27 01:49:47;;;;;;;3.50;1.60;;;11.00;99.90;;;;;;5110923;28;20780;-73
2022/09/27 01:52:17;;;;;;;4.40;1.70;;;11.10;99.90;;;;;;5110336;28;20405;-73
2022/09/27 01:54:47;;;;;;;2.13;1.70;;;11.10;99.90;;;;;;5103676;28;20843;-73
2022/09/27 01:57:23;;;;;;;2.20;1.47;;;11.10;99.90;;;;;;5070099;28;20893;-74
2022/09/27 02:00:10;;;;;;;2.40;1.63;;;11.10;99.90;;;;;;5068494;28;20487;-73
2022/09/27 02:02:42;;;;;;;10.57;2.20;;;11.00;99.90;;;;;;5078080;28;20410;-72
2022/09/27 02:05:13;;;;;;;2.03;1.83;;;11.00;99.90;;;;;;5088664;28;20920;-74
2022/09/27 02:07:50;;;;;;;3.20;2.07;;;11.00;99.90;;;;;;5090093;28;20453;-73
2022/09/27 02:10:24;;;;;;;2.70;1.67;;;11.10;99.90;;;;;;5088092;28;20432;-73
2022/09/27 02:13:00;;;;;;;1.80;1.70;;;11.10;99.90;;;;;;5090249;28;20410;-72
2022/09/27 02:15:27;;;;;;;6.93;1.87;;;11.10;99.90;;;;;;5093167;28;20402;-73
2022/09/27 02:17:57;;;;;;;3.70;1.70;;;11.00;99.90;;;;;;5109558;28;20424;-71
2022/09/27 02:20:30;;;;;;;4.30;1.80;;;11.00;99.90;;;;;;5110097;28;20505;-75
2022/09/27 02:23:09;;;;;;;3.00;1.67;;;11.00;99.90;;;;;;5110568;28;20424;-73
2022/09/27 02:25:49;;;;;;;3.93;1.90;;;11.00;99.90;;;;;;5112687;28;20791;-73
2022/09/27 02:28:39;;;;;;;4.70;1.93;;;11.00;99.90;;;;;;5115138;28;20417;-73
2022/09/27 02:31:04;;;;;;;4.73;1.63;;;11.00;99.90;;;;;;5114080;28;20412;-72
2022/09/27 02:33:54;;;;;;;2.23;1.73;;;11.00;99.90;;;;;;5114803;28;20494;-73
2022/09/27 02:36:20;;;;;;;2.63;1.60;;;11.00;99.90;;;;;;5113847;28;20167;-75
2022/09/27 02:38:46;;;;;;;5.73;2.10;;;10.90;99.90;;;;;;5114590;28;20481;-73
2022/09/27 02:41:13;;;;;;;3.13;2.10;;;10.90;99.90;;;;;;5112097;28;20412;-75
2022/09/27 02:43:39;;;;;;;4.23;2.20;;;11.00;99.90;;;;;;5109407;28;20413;-73
2022/09/27 02:46:23;;;;;;;7.07;2.63;;;11.00;99.90;;;;;;5105313;28;20744;-74
2022/09/27 02:49:19;;;;;;;5.30;2.17;;;11.00;99.90;;;;;;5090598;28;20227;-74
2022/09/27 02:52:11;;;;;;;2.70;2.10;;;11.00;99.90;;;;;;5091644;28;20958;-74
2022/09/27 02:54:53;;;;;;;4.23;2.10;;;10.90;99.90;;;;;;5093384;28;20450;-73
2022/09/27 02:57:35;;;;;;;7.40;2.60;;;10.90;99.90;;;;;;5094009;28;20823;-73
2022/09/27 03:00:10;;;;;;;9.73;2.60;;;10.90;99.90;;;;;;5093434;28;20573;-73
2022/09/27 03:02:54;;;;;;;6.93;2.33;;;10.90;99.90;;;;;;5092620;28;20891;-73
2022/09/27 03:05:33;;;;;;;9.13;2.57;;;10.90;99.90;;;;;;5093168;28;20493;-73
2022/09/27 03:07:59;;;;;;;6.90;2.53;;;10.90;99.90;;;;;;5094043;28;20539;-72
2022/09/27 03:10:27;;;;;;;7.83;2.30;;;10.90;99.90;;;;;;5092871;28;20492;-73
2022/09/27 03:12:54;;;;;;;8.57;2.50;;;10.80;99.90;;;;;;5093434;28;20626;-73
2022/09/27 03:15:20;;;;;;;6.67;2.53;;;10.80;99.90;;;;;;5101003;28;20410;-75
2022/09/27 03:17:45;;;;;;;7.50;2.93;;;10.90;99.90;;;;;;5112243;28;20482;-73
2022/09/27 03:20:11;;;;;;;11.00;2.60;;;10.90;99.90;;;;;;5113768;28;20192;-73
2022/09/27 03:22:37;;;;;;;4.90;3.03;;;10.90;99.90;;;;;;5113165;28;20171;-73
2022/09/27 03:25:06;;;;;;;9.13;4.03;;;10.80;99.90;;;;;;5110129;28;20251;-73
2022/09/27 03:27:32;;;;;;;8.90;4.63;;;10.80;99.90;;;;;;5091529;28;20869;-73
2022/09/27 03:29:58;;;;;;;3.80;2.50;;;10.80;99.90;;;;;;5092463;28;20434;-73
2022/09/27 03:32:24;;;;;;;5.40;2.90;;;10.80;99.90;;;;;;5093034;28;20754;-73
2022/09/27 03:34:50;;;;;;;7.87;3.07;;;10.90;99.90;;;;;;5091443;28;20200;-73
2022/09/27 03:37:15;;;;;;;6.60;2.90;;;10.90;99.90;;;;;;5092390;28;20467;-72
2022/09/27 03:39:41;;;;;;;7.97;2.50;;;10.90;99.90;;;;;;5092511;28;20164;-75
2022/09/27 03:42:06;;;;;;;3.93;2.57;;;10.80;99.90;;;;;;5091276;28;20172;-73
2022/09/27 03:44:32;;;;;;;9.00;3.40;;;10.80;99.90;;;;;;5093832;28;20252;-72
2022/09/27 03:46:58;;;;;;;10.03;3.27;;;10.80;99.90;;;;;;5103098;28;20178;-74
2022/09/27 03:49:24;;;;;;;11.83;4.00;;;10.90;99.90;;;;;;5113214;28;20625;-74
2022/09/27 03:51:49;;;;;;;6.83;2.97;;;10.90;99.90;;;;;;5112494;28;20423;-73
2022/09/27 03:54:15;;;;;;;3.83;2.50;;;10.90;99.90;;;;;;5113148;28;20294;-73
2022/09/27 03:56:40;;;;;;;7.43;3.00;;;11.00;99.90;;;;;;5112766;28;20171;-74
2022/09/27 03:59:06;;;;;;;9.40;3.03;;;10.90;99.90;;;;;;5091946;28;20231;-72
2022/09/27 04:01:31;;;;;;;6.27;3.43;;;10.90;99.90;;;;;;5071293;28;20196;-73
2022/09/27 04:03:57;;;;;;;4.90;2.50;;;10.90;99.90;;;;;;5091980;28;20607;-73
2022/09/27 04:06:22;;;;;;;5.50;2.77;;;10.80;99.90;;;;;;5091724;28;20652;-73
2022/09/27 04:08:48;;;;;;;7.27;2.90;;;10.80;99.90;;;;;;5092707;28;20271;-73
2022/09/27 04:11:14;;;;;;;4.27;2.60;;;10.80;99.90;;;;;;5090001;28;20262;-72
2022/09/27 04:13:40;;;;;;;5.63;2.70;;;10.80;99.90;;;;;;5093191;28;20468;-73
2022/09/27 04:16:06;;;;;;;10.63;2.97;;;10.80;99.90;;;;;;5103509;28;20585;-73
2022/09/27 04:18:32;;;;;;;5.73;3.33;;;10.80;99.90;;;;;;5112757;28;20423;-74
2022/09/27 04:20:58;;;;;;;4.67;2.83;;;10.80;99.90;;;;;;5111752;28;20488;-73
2022/09/27 04:23:23;;;;;;;5.20;2.60;;;10.80;99.90;;;;;;5112821;28;20263;-73
2022/09/27 04:25:49;;;;;;;8.60;2.93;;;10.80;99.90;;;;;;5111751;28;20299;-73
2022/09/27 04:28:14;;;;;;;9.93;3.30;;;10.70;99.90;;;;;;5112459;28;20195;-74
2022/09/27 04:30:40;;;;;;;3.80;2.67;;;10.70;99.90;;;;;;5110608;28;20210;-75
2022/09/27 04:33:06;;;;;;;10.73;3.13;;;10.70;99.90;;;;;;5112266;28;20191;-73
2022/09/27 04:38:19;;;;;;;5.03;2.97;;;10.70;99.90;;;;;;5112370;28;20218;-73
2022/09/27 04:40:44;;;;;;;5.10;3.30;;;10.80;99.90;;;;;;5111518;28;20428;-73
2022/09/27 04:43:10;;;;;;;6.40;3.20;;;10.80;99.90;;;;;;5110346;28;20888;-73
2022/09/27 04:45:35;;;;;;;5.60;3.63;;;10.80;99.90;;;;;;5099524;28;20666;-73
2022/09/27 04:48:01;;;;;;;9.87;3.57;;;10.80;99.90;;;;;;5100496;28;20195;-73
2022/09/27 04:50:26;;;;;;;6.33;3.13;;;10.80;99.90;;;;;;5089324;28;20168;-73
2022/09/27 04:52:53;;;;;;;5.87;3.00;;;10.80;99.90;;;;;;5091406;28;20168;-73
2022/09/27 04:55:19;;;;;;;7.53;3.53;;;10.80;99.90;;;;;;5091013;28;20492;-72
2022/09/27 04:57:45;;;;;;;8.60;3.47;;;10.80;99.90;;;;;;5090249;28;20430;-73
2022/09/27 05:00:12;;;;;;;5.67;3.60;;;10.80;99.90;;;;;;5091002;28;20806;-74
2022/09/27 05:02:38;;;;;;;6.27;2.87;;;10.70;99.90;;;;;;5089819;28;20412;-75
2022/09/27 05:05:05;;;;;;;7.53;2.90;;;10.80;99.90;;;;;;5091585;28;20398;-73
2022/09/27 05:07:33;;;;;;;4.03;2.50;;;10.70;99.90;;;;;;5091097;28;20191;-74
2022/09/27 05:09:59;;;;;;;5.70;2.53;;;10.70;99.90;;;;;;5090779;28;20926;-73
2022/09/27 05:12:25;;;;;;;5.10;2.50;;;10.70;99.90;;;;;;5091013;28;20410;-74
2022/09/27 05:14:51;;;;;;;7.73;2.67;;;10.70;99.90;;;;;;5098873;28;20568;-74
2022/09/27 05:17:17;;;;;;;4.33;2.30;;;10.70;99.90;;;;;;5105245;28;20429;-74
2022/09/27 05:19:43;;;;;;;2.50;2.10;;;10.70;99.90;;;;;;5111387;28;20853;-74
2022/09/27 05:22:08;;;;;;;2.97;2.50;;;10.70;99.90;;;;;;5110871;28;20401;-73
2022/09/27 05:24:34;;;;;;;2.80;2.20;;;10.70;99.90;;;;;;5110963;28;20616;-73
2022/09/27 05:27:00;;;;;;;3.27;2.00;;;10.60;99.90;;;;;;5090122;28;20182;-73
2022/09/27 05:29:27;;;;;;;4.10;2.00;;;10.50;99.90;;;;;;5090230;28;20935;-73
2022/09/27 05:31:53;;;;;;;5.93;2.20;;;10.40;99.90;;;;;;5089269;28;20956;-73
2022/09/27 05:34:19;;;;;;;4.50;2.17;;;10.40;99.90;;;;;;5090948;28;20480;-73
2022/09/27 05:36:48;;;;;;;3.00;1.70;;;10.40;99.90;;;;;;5088933;28;20840;-73
2022/09/27 05:39:17;;;;;;;5.97;1.80;;;10.50;99.90;;;;;;5090736;28;20195;-74
2022/09/27 05:41:44;;;;;;;4.33;2.10;;;10.40;99.90;;;;;;5090189;28;20445;-72
2022/09/27 05:44:12;;;;;;;1.93;1.60;;;10.50;99.90;;;;;;5095643;28;20409;-73
2022/09/27 05:46:38;;;;;;;2.87;2.13;;;10.50;99.90;;;;;;5100391;28;20417;-73
2022/09/27 05:49:04;;;;;;;2.43;2.00;;;10.50;99.90;;;;;;5109979;28;20532;-73
2022/09/27 05:51:29;;;;;;;7.90;2.00;;;10.50;99.90;;;;;;5110213;28;20439;-73
2022/09/27 05:53:55;;;;;;;3.50;2.57;;;10.30;99.90;;;;;;5111112;28;20513;-75
2022/09/27 05:56:20;;;;;;;4.50;2.87;;;10.50;99.90;;;;;;5098941;28;20642;-73
2022/09/27 05:58:46;;;;;;;1.60;1.50;;;10.50;99.90;;;;;;5070261;28;20192;-71
2022/09/27 06:01:11;;;;;;;2.83;2.50;;;10.50;99.90;;;;;;5070829;28;20308;-73
2022/09/27 06:03:39;;;;;;;4.30;2.93;;;10.50;99.90;;;;;;5090059;28;20189;-73
2022/09/27 06:06:06;;;;;;;3.27;2.07;;;10.60;99.90;;;;;;5089680;28;20589;-73
2022/09/27 06:08:35;;;;;;;4.40;2.10;;;10.70;99.90;;;;;;5090531;28;20607;-73
2022/09/27 06:11:09;;;;;;;4.60;2.10;;;10.80;99.90;;;;;;5089168;28;20413;-73
2022/09/27 06:13:35;;;;;;;5.50;2.60;;;11.80;99.90;;;;;;5089080;28;20540;-73
2022/09/27 06:16:01;;;;;;;3.20;2.13;;;10.70;99.90;;;;;;5088430;28;20464;-73
2022/09/27 06:18:27;;;;;;;2.23;1.77;;;10.70;99.90;;;;;;5090452;28;20475;-73
2022/09/27 06:20:53;;;;;;;4.60;2.20;;;10.70;99.90;;;;;;5089407;28;20973;-73
2022/09/27 06:23:21;;;;;;;3.73;2.30;;;10.70;99.90;;;;;;5090277;28;20172;-73
2022/09/27 06:25:47;;;;;;;5.10;2.47;;;10.80;99.90;;;;;;5089232;28;20769;-75
2022/09/27 06:28:13;;;;;;;3.10;2.30;;;10.80;99.90;;;;;;5090257;28;20524;-74
2022/09/27 06:30:40;;;;;;;2.80;1.77;;;10.90;99.90;;;;;;5089531;28;20498;-73
2022/09/27 06:33:06;;;;;;;1.83;1.60;;;10.80;99.90;;;;;;5088633;28;20171;-73
2022/09/27 06:35:34;;;;;;;1.80;1.70;;;10.80;99.90;;;;;;5089823;28;20436;-73
2022/09/27 06:38:03;;;;;;;3.60;2.10;;;10.80;99.90;;;;;;5090108;28;20422;-73
2022/09/27 06:40:29;;;;;;;2.87;1.63;;;10.90;99.90;;;;;;5089088;28;20394;-73
2022/09/27 06:43:02;;;;;;;3.20;2.00;;;10.90;99.90;;;;;;5089977;28;20409;-74
2022/09/27 06:45:27;;;;;;;3.07;1.97;;;10.80;99.90;;;;;;5093326;28;20398;-74
2022/09/27 06:47:54;;;;;;;4.93;2.00;;;10.80;99.90;;;;;;5100005;28;20826;-74
2022/09/27 06:50:19;;;;;;;4.33;3.33;;;10.80;99.90;;;;;;5088982;28;20313;-72
2022/09/27 06:52:48;;;;;;;3.70;2.03;;;10.80;99.90;;;;;;5089809;28;20505;-72
2022/09/27 06:55:15;;;;;;;3.37;2.33;;;10.80;99.30;;;;;;5089298;28;20650;-72
2022/09/27 07:00:27;;;;;;;5.13;3.13;;;10.80;99.90;;;;;;5089573;28;20714;-73
2022/09/27 07:02:55;;;;;;;3.63;2.13;;;10.80;99.90;;;;;;5089809;28;20398;-73
2022/09/27 07:05:20;;;;;;;4.97;1.83;;;10.80;99.30;;;;;;5089522;28;20394;-73
2022/09/27 07:07:47;;;;;;;4.00;2.10;;;10.80;99.90;;;;;;5088630;28;20772;-73
2022/09/27 07:10:13;;;;;;;4.50;3.10;;;10.80;99.40;;;;;;5089669;28;20160;-73
2022/09/27 07:12:38;;;;;;;3.47;2.07;;;10.90;99.90;;;;;;5093357;28;20420;-73
2022/09/27 07:15:05;;;;;;;5.53;4.37;;;10.90;96.40;;;;;;5101231;28;20199;-74
2022/09/27 07:17:31;;;;;;;2.07;1.87;;;10.90;99.40;;;;;;5109698;28;20238;-73
2022/09/27 07:19:56;;;;;;;2.43;1.97;;;10.90;99.40;;;;;;5113386;28;20404;-73
2022/09/27 07:22:22;;;;;;;2.43;1.60;;;10.90;99.40;;;;;;5113330;28;20163;-73
2022/09/27 07:24:47;;;;;;;4.00;1.80;;;10.90;94.80;;;;;;5112615;28;20626;-72
2022/09/27 07:27:14;;;;;;;3.30;2.10;;;10.80;98.20;;;;;;5092766;28;20265;-72
2022/09/27 07:29:39;;;;;;;2.60;2.30;;;10.80;99.10;;;;;;5092482;28;20206;-73
2022/09/27 07:32:05;;;;;;;6.10;2.43;;;10.90;99.40;;;;;;5093066;28;20406;-73
2022/09/27 07:34:32;;;;;;;3.80;3.50;;;11.00;99.40;;;;;;5092830;28;20223;-75
2022/09/27 07:36:59;;;;;;;3.03;1.70;;;11.00;94.30;;;;;;5091293;28;20254;-73
2022/09/27 07:39:25;;;;;;;2.50;2.03;;;10.90;95.30;;;;;;5092787;28;20506;-73
2022/09/27 07:41:51;;;;;;;4.60;2.10;;;10.90;98.40;;;;;;5091280;28;20467;-74
2022/09/27 07:44:16;;;;;;;2.80;1.80;;;10.90;95.10;;;;;;5099120;28;20409;-73
2022/09/27 07:46:42;;;;;;;1.90;1.60;;;10.90;92.80;;;;;;5102167;28;20930;-73
2022/09/27 07:49:08;;;;;;;2.57;2.00;;;10.90;87.20;;;;;;5111796;28;20187;-74
2022/09/27 07:51:33;;;;;;;3.00;1.67;;;10.80;86.30;;;;;;5112282;28;20229;-73
2022/09/27 07:54:02;;;;;;;3.00;1.60;;;10.80;81.40;;;;;;5108424;28;20187;-73
2022/09/27 07:56:28;;;;;;;1.70;1.60;;;10.60;73.10;;;;;;5089998;28;20293;-73
2022/09/27 07:58:53;;;;;;;7.00;1.80;;;10.70;83.30;;;;;;5093083;28;20434;-73
2022/09/27 08:01:19;;;;;;;2.03;1.40;;;10.80;90.10;;;;;;5091626;28;20176;-73
2022/09/27 08:03:45;;;;;;;1.87;1.50;;;10.80;77.90;;;;;;5092165;28;20183;-73
2022/09/27 08:06:11;;;;;;;4.40;1.50;;;10.80;83.70;;;;;;5092207;28;20604;-74
2022/09/27 08:08:37;;;;;;;4.60;2.73;;;10.90;76.30;;;;;;5092805;28;20188;-73
2022/09/27 08:11:14;;;;;;;3.10;1.33;;;10.90;72.90;;;;;;5091570;28;20456;-72
2022/09/27 08:13:41;;;;;;;3.40;1.40;;;11.00;58.60;;;;;;5093233;28;20700;-73
2022/09/27 08:16:07;;;;;;;3.50;2.00;;;11.10;62.50;;;;;;5103498;28;20405;-73
2022/09/27 08:18:32;;;;;;;1.73;1.53;;;11.40;66.60;;;;;;5112982;28;20413;-73
2022/09/27 08:20:59;;;;;;;2.83;1.50;;;11.40;49.30;;;;;;5112283;28;20163;-73
2022/09/27 08:23:25;;;;;;;2.37;1.80;;;11.60;39.40;;;;;;5111737;28;20182;-73
2022/09/27 08:25:52;;;;;;;3.43;2.37;;;11.80;39.40;;;;;;5111893;28;20412;-73
2022/09/27 08:28:18;;;;;;;4.03;1.60;;;12.00;39.60;;;;;;5111162;28;20466;-73
2022/09/27 08:30:43;;;;;;;2.93;1.70;;;12.30;27.60;;;;;;5110407;28;20417;-73
2022/09/27 08:33:09;;;;;;;2.90;1.50;;;12.40;22.50;;;;;;5112454;28;20175;-73
2022/09/27 08:35:34;;;;;;;1.30;1.20;;;12.80;16.50;;;;;;5110369;28;20172;-74
2022/09/27 08:38:01;;;;;;;2.40;1.40;;;13.20;1.00;;;;;;5112505;28;20190;-73
2022/09/27 08:40:38;;;;;;;2.30;1.57;;;13.50;6.40;;;;;;5111729;28;20238;-73
2022/09/27 08:43:30;;;;;;;2.37;1.73;;;13.30;1.00;;;;;;5110002;28;20469;-73
2022/09/27 08:45:58;;;;;;;1.77;1.60;;;13.20;10.90;;;;;;5102013;28;20409;-73
2022/09/27 08:48:26;;;;;;;1.70;1.40;;;12.90;1.00;;;;;;5098440;28;20884;-73
2022/09/27 08:50:53;;;;;;;5.43;1.63;;;12.90;1.00;;;;;;5090563;28;20497;-76
2022/09/27 08:53:26;;;;;;;1.50;1.40;;;12.80;1.00;;;;;;5091673;28;20457;-72
2022/09/27 08:55:57;;;;;;;1.90;1.60;;;13.00;2.20;;;;;;5090759;28;20394;-73
2022/09/27 08:58:32;;;;;;;5.10;1.83;;;13.00;1.00;;;;;;5090332;28;20434;-74
2022/09/27 09:01:02;;;;;;;2.50;1.80;;;13.00;1.00;;;;;;5089387;28;20509;-75
2022/09/27 09:03:31;;;;;;;3.53;1.77;;;13.00;1.00;;;;;;5090438;28;20513;-73
2022/09/27 09:06:25;;;;;;;5.20;1.90;;;13.00;1.00;;;;;;5090928;28;20489;-74
2022/09/27 09:09:31;;;;;;;6.43;2.07;;;12.80;1.00;;;;;;5090225;28;20952;-74
2022/09/27 09:15:11;;;;;;;3.03;1.67;;;12.70;1.00;;;;;;5098966;28;20455;-73
2022/09/27 09:17:54;;;;;;;3.30;1.77;;;12.70;1.00;;;;;;5108301;28;20429;-75
2022/09/27 09:20:54;;;;;;;2.10;1.70;;;12.80;1.00;;;;;;5110875;28;20428;-73
2022/09/27 09:23:48;;;;;;;2.07;1.70;;;13.20;1.00;;;;;;5111707;28;20401;-73
2022/09/27 09:26:21;;;;;;;4.30;1.97;;;13.80;1.00;;;;;;5097575;28;20440;-74
2022/09/27 09:29:11;;;;;;;2.70;1.97;;;14.80;1.00;;;;;;5090753;28;20514;-73
2022/09/27 09:31:47;;;;;;;2.80;1.80;;;16.00;1.00;;;;;;5089946;28;20435;-73
2022/09/27 09:34:38;;;;;;;2.00;1.50;;;16.50;1.00;;;;;;5089368;28;20567;-72
2022/09/27 09:37:33;;;;;;;5.20;2.00;;;16.30;1.00;;;;;;5088919;28;20465;-73
2022/09/27 09:40:12;;;;;;;3.30;1.70;;;15.80;1.00;;;;;;5090477;28;20398;-73
2022/09/27 09:43:00;;;;;;;2.57;2.17;;;15.20;1.00;;;;;;5090457;28;20406;-72
2022/09/27 09:45:33;;;;;;;3.93;1.87;;;14.50;1.00;;;;;;5082045;28;20405;-73
2022/09/27 09:48:04;;;;;;;2.90;1.87;;;14.10;1.00;;;;;;5097099;28;20426;-73
2022/09/27 09:50:45;;;;;;;2.90;2.13;;;13.90;1.00;;;;;;5090128;28;20433;-73
2022/09/27 09:53:19;;;;;;;3.50;2.20;;;13.70;1.00;;;;;;5089262;28;20417;-74
2022/09/27 09:55:56;;;;;;;8.60;2.10;;;13.60;1.00;;;;;;5090029;28;20700;-73
2022/09/27 09:58:33;;;;;;;4.00;2.10;;;13.50;1.00;;;;;;5090423;28;20429;-73
2022/09/27 10:01:28;;;;;;;4.03;2.10;;;13.40;1.00;;;;;;5088180;28;20853;-72
2022/09/27 10:03:55;;;;;;;7.80;2.10;;;13.40;1.00;;;;;;5085892;28;20483;-73
2022/09/27 10:06:23;;;;;;;3.17;2.00;;;13.40;1.00;;;;;;5088465;28;20426;-73
2022/09/27 10:08:53;;;;;;;5.73;2.27;;;13.30;1.00;;;;;;5090294;28;20433;-73
2022/09/27 10:11:25;;;;;;;2.70;2.10;;;13.30;1.00;;;;;;5089338;28;20406;-73
2022/09/27 10:13:52;;;;;;;5.70;2.70;;;13.20;1.00;;;;;;5091422;28;20964;-71
2022/09/27 10:16:19;;;;;;;3.97;2.20;;;13.00;1.00;;;;;;5101381;28;20493;-73
2022/09/27 10:18:46;;;;;;;3.10;2.10;;;13.00;1.00;;;;;;5110797;28;21126;-74
2022/09/27 10:21:24;;;;;;;2.77;2.40;;;13.00;1.00;;;;;;5108178;28;20397;-73
2022/09/27 10:24:19;;;;;;;5.60;2.70;;;13.00;1.00;;;;;;5109573;28;20926;-73
2022/09/27 10:26:47;;;;;;;6.73;2.70;;;12.90;1.00;;;;;;5105309;28;20421;-72
2022/09/27 10:29:18;;;;;;;3.57;3.00;;;12.70;1.00;;;;;;5110424;28;20470;-73
2022/09/27 10:31:46;;;;;;;3.90;2.20;;;12.70;4.80;;;;;;5109898;28;20428;-73
2022/09/27 10:34:37;;;;;;;6.70;2.90;;;12.60;1.00;;;;;;5111020;28;20938;-73
2022/09/27 10:37:11;;;;;;;3.20;2.57;;;12.50;7.90;;;;;;5110414;28;20450;-73
2022/09/27 10:39:39;;;;;;;5.20;3.67;;;12.50;17.40;;;;;;5109953;28;20473;-73
2022/09/27 10:42:32;;;;;;;3.77;1.60;;;12.40;12.70;;;;;;5108840;28;20417;-73
2022/09/27 10:45:30;;;;;;;3.23;2.20;;;12.40;6.60;;;;;;5101226;28;20412;-74
2022/09/27 10:47:58;;;;;;;2.53;1.80;;;12.60;1.00;;;;;;5098349;28;20428;-74
2022/09/27 10:50:26;;;;;;;3.17;1.67;;;12.70;2.40;;;;;;5092825;28;20406;-73
2022/09/27 10:53:19;;;;;;;1.50;1.40;;;12.60;1.00;;;;;;5093993;28;20402;-73
2022/09/27 10:55:50;;;;;;;2.00;1.50;;;12.50;1.00;;;;;;5091907;28;20417;-74
2022/09/27 10:58:32;;;;;;;2.07;1.50;;;12.40;1.00;;;;;;5093929;28;20479;-73
2022/09/27 11:01:07;;;;;;;3.73;1.47;;;12.40;1.00;;;;;;5092893;28;20442;-73
2022/09/27 11:03:51;;;;;;;4.47;1.60;;;12.20;1.00;;;;;;5094114;28;20396;-74
2022/09/27 11:06:22;;;;;;;3.13;1.57;;;12.50;1.00;;;;;;5093157;28;20406;-73
2022/09/27 11:08:49;;;;;;;4.37;1.93;;;12.90;1.00;;;;;;5093965;28;20431;-73
2022/09/27 11:11:20;;;;;;;2.73;1.93;;;13.40;1.00;;;;;;5092300;28;20540;-73
2022/09/27 11:13:58;;;;;;;2.40;1.93;;;14.10;1.00;;;;;;5095229;28;20461;-75
2022/09/27 11:16:51;;;;;;;1.47;1.37;;;14.30;1.00;;;;;;5103358;28;20424;-74
2022/09/27 11:19:28;;;;;;;1.40;1.10;;;14.90;1.00;;;;;;5114039;28;20792;-73
2022/09/27 11:22:17;;;;;;;1.27;1.03;;;15.00;1.00;;;;;;5113191;28;20813;-73
2022/09/27 11:24:42;;;;;;;1.30;1.20;;;15.20;1.00;;;;;;5113424;28;20405;-74
2022/09/27 11:27:44;;;;;;;4.70;1.17;;;15.50;1.00;;;;;;5092714;28;20410;-73
2022/09/27 11:30:19;;;;;;;2.50;1.50;;;15.60;1.00;;;;;;5072428;28;20665;-73
2022/09/27 11:32:50;;;;;;;2.70;1.53;;;15.60;1.00;;;;;;5072967;28;20398;-73
2022/09/27 11:35:37;;;;;;;1.50;1.40;;;15.60;1.00;;;;;;5072509;28;20570;-73
2022/09/27 11:38:22;;;;;;;1.93;1.50;;;15.80;1.00;;;;;;5073086;28;20505;-72
2022/09/27 11:41:18;;;;;;;2.80;1.80;;;16.00;1.00;;;;;;5072445;28;20437;-73
2022/09/27 11:43:52;;;;;;;1.90;1.50;;;15.90;1.00;;;;;;5079365;28;20471;-74
2022/09/27 11:46:38;;;;;;;1.57;1.43;;;16.10;1.00;;;;;;5104148;28;20769;-73
2022/09/27 11:49:19;;;;;;;2.03;1.50;;;17.40;1.00;;;;;;5113514;28;20424;-73
2022/09/27 11:52:11;;;;;;;4.60;1.80;;;19.30;1.00;;;;;;5092748;28;20462;-73
2022/09/27 11:55:00;;;;;;;2.53;1.80;;;20.90;1.00;;;;;;5072168;28;20677;-73
2022/09/27 11:57:37;;;;;;;3.07;2.10;;;21.70;1.00;;;;;;5087725;28;20430;-73
2022/09/27 12:00:15;;;;;;;6.27;2.30;;;20.70;1.00;;;;;;5092602;28;20398;-75
2022/09/27 12:02:46;;;;;;;3.50;2.50;;;19.30;1.00;;;;;;5092033;28;20408;-74
2022/09/27 12:05:46;;;;;;;5.80;2.50;;;18.50;1.00;;;;;;5092042;28;20501;-74
2022/09/27 12:08:33;;;;;;;3.93;2.33;;;18.00;1.00;;;;;;5093260;28;20508;-74
2022/09/27 12:11:36;;;;;;;4.07;2.60;;;19.40;1.00;;;;;;5092530;28;20394;-78
2022/09/27 12:14:36;;;;;;;7.83;2.30;;;21.50;1.00;;;;;;5095528;28;20517;-74
2022/09/27 12:17:06;;;;;;;3.90;2.17;;;23.10;1.00;;;;;;5095766;28;20512;-74
2022/09/27 12:19:37;;;;;;;4.30;2.03;;;25.50;1.00;;;;;;5112395;28;20768;-74
2022/09/27 12:22:05;;;;;;;6.17;1.80;;;27.10;1.00;;;;;;5111206;28;20518;-74
2022/09/27 12:24:32;;;;;;;3.10;1.80;;;27.30;1.00;;;;;;5113303;28;20513;-74
2022/09/27 12:27:08;;;;;;;3.07;1.77;;;28.60;1.00;;;;;;5113105;28;20487;-75
2022/09/27 12:29:38;;;;;;;2.90;1.70;;;28.20;1.00;;;;;;5111924;28;20929;-73
2022/09/27 12:32:17;;;;;;;4.03;2.30;;;25.80;1.00;;;;;;5112753;28;20396;-74
2022/09/27 12:35:16;;;;;;;4.57;2.30;;;25.10;1.00;;;;;;5112977;28;20894;-75
2022/09/27 12:37:57;;;;;;;3.87;2.30;;;25.20;1.00;;;;;;5113166;28;20438;-74
2022/09/27 12:40:30;;;;;;;3.33;1.60;;;23.70;1.00;;;;;;5112445;28;20928;-73
2022/09/27 12:43:11;;;;;;;2.60;1.70;;;23.50;1.00;;;;;;5112533;28;20409;-74
2022/09/27 12:45:53;;;;;;;3.73;1.70;;;22.10;1.00;;;;;;5097560;28;20466;-74
2022/09/27 12:48:49;;;;;;;3.33;1.70;;;21.30;1.00;;;;;;5099940;28;20430;-74
2022/09/27 12:51:18;;;;;;;2.83;1.63;;;19.30;1.00;;;;;;5083491;28;20414;-74
2022/09/27 12:53:53;;;;;;;7.53;4.47;;;17.60;1.00;;;;;;5092474;28;20454;-74
2022/09/27 12:56:28;;;;;;;3.13;1.93;;;16.40;1.00;;;;;;5091496;28;20405;-73
2022/09/27 12:59:03;;;;;;;9.40;1.70;;;16.00;1.00;;;;;;5092416;28;20433;-73
2022/09/27 13:01:34;;;;;;;2.13;1.47;;;15.70;1.00;;;;;;5090226;28;20409;-73
2022/09/27 13:04:19;;;;;;;1.73;1.20;;;15.70;1.00;;;;;;5092482;28;20418;-74
2022/09/27 13:07:22;;;;;;;2.50;1.40;;;16.10;1.00;;;;;;5091556;28;20413;-74
2022/09/27 13:09:57;;;;;;;1.47;1.10;;;16.90;1.00;;;;;;5091096;28;20475;-73
2022/09/27 13:12:26;;;;;;;2.00;1.50;;;16.40;1.00;;;;;;5091440;28;20535;-74
2022/09/27 13:15:00;;;;;;;3.77;1.40;;;15.80;1.00;;;;;;5100279;28;20478;-74
2022/09/27 13:17:32;;;;;;;2.50;1.20;;;15.30;1.00;;;;;;5107136;28;20433;-74
2022/09/27 13:19:58;;;;;;;2.17;1.30;;;16.20;1.00;;;;;;5112345;28;20389;-73
2022/09/27 13:22:27;;;;;;;1.73;1.30;;;18.30;1.00;;;;;;5109822;28;20915;-73
2022/09/27 13:24:53;;;;;;;2.23;1.50;;;18.60;1.00;;;;;;5109150;28;20179;-74
2022/09/27 13:27:22;;;;;;;3.60;1.40;;;18.10;1.00;;;;;;5091008;28;20478;-73